Time;durP1;ratioP1;P1;durP2;ratioP2;P2;SDS_P1;SDS_P2;PMS_P1;PMS_P2;Temp;Humidity;BMP_temperature;BMP_pressure;BME280_temperature;BME280_humidity;BME280_pressure;Samples;Min_cycle;Max_cycle;Signal;HPM_P1;HPM_P2
2021/07/08 00:01:46;;;;;;;23.30;9.90;;;;;;;;;;5053483;28;20049;-76
2021/07/08 00:04:50;;;;;;;24.05;9.18;;;;;;;;;;5040659;28;20041;-75
2021/07/08 00:08:00;;;;;;;24.50;9.25;;;;;;;;;;5053317;28;20037;-75
2021/07/08 00:11:04;;;;;;;24.13;9.45;;;;;;;;;;5053257;28;20032;-75
2021/07/08 00:14:09;;;;;;;23.42;9.38;;;;;;;;;;5052398;28;20033;-75
2021/07/08 00:17:13;;;;;;;25.60;9.32;;;;;;;;;;5052974;28;20051;-75
2021/07/08 00:20:19;;;;;;;30.70;9.27;;;;;;;;;;5052894;28;20048;-75
2021/07/08 00:23:24;;;;;;;19.60;9.57;;;;;;;;;;5052881;28;20484;-75
2021/07/08 00:26:28;;;;;;;25.48;9.55;;;;;;;;;;5053080;28;20029;-75
2021/07/08 00:29:32;;;;;;;25.90;9.50;;;;;;;;;;5053096;28;20041;-75
2021/07/08 00:32:37;;;;;;;25.38;9.20;;;;;;;;;;5052497;28;20029;-75
2021/07/08 00:35:42;;;;;;;26.77;9.32;;;;;;;;;;5052601;28;20520;-75
2021/07/08 00:38:46;;;;;;;30.85;9.23;;;;;;;;;;5052553;28;20535;-75
2021/07/08 00:41:50;;;;;;;22.00;9.00;;;;;;;;;;5052612;28;20064;-75
2021/07/08 00:44:55;;;;;;;17.67;9.27;;;;;;;;;;5052294;28;20041;-75
2021/07/08 00:47:59;;;;;;;22.77;9.48;;;;;;;;;;5052390;28;20036;-75
2021/07/08 00:51:03;;;;;;;25.75;9.30;;;;;;;;;;5052522;28;20029;-75
2021/07/08 00:54:10;;;;;;;23.88;8.70;;;;;;;;;;5052312;28;20048;-75
2021/07/08 00:57:33;;;;;;;24.08;9.90;;;;;;;;;;5051724;28;20048;-75
2021/07/08 01:00:38;;;;;;;19.50;8.65;;;;;;;;;;5052160;28;20126;-75
2021/07/08 01:03:42;;;;;;;28.10;9.65;;;;;;;;;;5052151;28;20055;-75
2021/07/08 01:06:48;;;;;;;31.05;8.57;;;;;;;;;;5052298;28;20029;-75
2021/07/08 01:09:53;;;;;;;26.85;9.30;;;;;;;;;;5051940;28;20041;-75
2021/07/08 01:12:57;;;;;;;19.23;9.18;;;;;;;;;;5052362;28;20045;-75
2021/07/08 01:16:02;;;;;;;24.33;8.38;;;;;;;;;;5051980;28;20515;-75
2021/07/08 01:19:06;;;;;;;22.90;8.95;;;;;;;;;;5051755;28;20417;-75
2021/07/08 01:22:10;;;;;;;25.52;8.45;;;;;;;;;;5051905;28;20504;-75
2021/07/08 01:25:15;;;;;;;23.48;8.40;;;;;;;;;;5051853;28;20393;-75
2021/07/08 01:28:20;;;;;;;22.20;8.52;;;;;;;;;;5051548;28;20033;-75
2021/07/08 01:31:25;;;;;;;23.83;8.63;;;;;;;;;;5051132;28;20044;-75
2021/07/08 01:34:29;;;;;;;25.55;9.00;;;;;;;;;;5051684;28;20503;-75
2021/07/08 01:37:34;;;;;;;26.75;8.43;;;;;;;;;;5051370;28;20045;-75
2021/07/08 01:40:39;;;;;;;24.40;8.85;;;;;;;;;;5050809;28;20513;-75
2021/07/08 01:43:43;;;;;;;22.15;9.00;;;;;;;;;;5050880;28;20045;-74
2021/07/08 01:46:47;;;;;;;21.65;7.78;;;;;;;;;;5051351;28;20056;-75
2021/07/08 01:49:52;;;;;;;27.38;8.80;;;;;;;;;;5051379;28;20048;-75
2021/07/08 01:52:57;;;;;;;26.10;8.40;;;;;;;;;;5051466;28;20029;-75
2021/07/08 01:56:01;;;;;;;15.80;8.02;;;;;;;;;;5051163;28;20029;-75
2021/07/08 01:59:05;;;;;;;20.75;8.48;;;;;;;;;;5051026;28;20041;-75
2021/07/08 02:02:10;;;;;;;17.88;8.20;;;;;;;;;;5051084;28;20060;-75
2021/07/08 02:05:14;;;;;;;14.95;7.57;;;;;;;;;;5050972;28;20043;-74
2021/07/08 02:08:18;;;;;;;16.60;7.70;;;;;;;;;;5050875;28;20034;-75
2021/07/08 02:11:23;;;;;;;25.80;8.82;;;;;;;;;;5051026;28;20037;-75
2021/07/08 02:14:27;;;;;;;22.52;7.85;;;;;;;;;;5050916;28;20041;-75
2021/07/08 02:17:32;;;;;;;18.88;7.47;;;;;;;;;;5038760;28;20029;-75
2021/07/08 02:20:37;;;;;;;24.42;7.53;;;;;;;;;;5050176;28;20048;-75
2021/07/08 02:23:42;;;;;;;15.57;7.75;;;;;;;;;;5050601;28;20499;-75
2021/07/08 02:26:46;;;;;;;16.92;7.88;;;;;;;;;;5051043;28;20044;-75
2021/07/08 02:29:50;;;;;;;13.35;8.38;;;;;;;;;;5050863;28;20033;-74
2021/07/08 02:32:56;;;;;;;26.17;8.70;;;;;;;;;;5050732;28;20033;-74
2021/07/08 02:36:00;;;;;;;20.30;7.75;;;;;;;;;;5050696;28;20496;-75
2021/07/08 02:39:06;;;;;;;16.73;8.35;;;;;;;;;;5050712;28;20412;-74
2021/07/08 02:42:10;;;;;;;16.80;7.50;;;;;;;;;;5050564;28;20044;-75
2021/07/08 02:45:14;;;;;;;13.35;6.78;;;;;;;;;;5050566;28;20052;-74
2021/07/08 02:48:21;;;;;;;12.32;6.70;;;;;;;;;;5050692;28;20504;-75
2021/07/08 02:51:25;;;;;;;18.63;7.63;;;;;;;;;;5050579;28;20041;-75
2021/07/08 02:54:29;;;;;;;15.45;6.63;;;;;;;;;;5050782;28;20029;-75
2021/07/08 02:57:34;;;;;;;14.10;6.57;;;;;;;;;;5053678;28;20032;-74
2021/07/08 03:00:38;;;;;;;13.02;6.70;;;;;;;;;;5054669;28;20505;-74
2021/07/08 03:03:42;;;;;;;14.35;6.60;;;;;;;;;;5054455;28;20037;-75
2021/07/08 03:06:46;;;;;;;15.23;7.13;;;;;;;;;;5054501;28;20037;-74
2021/07/08 03:09:51;;;;;;;15.63;6.60;;;;;;;;;;5054319;28;20044;-74
2021/07/08 03:12:55;;;;;;;13.95;6.57;;;;;;;;;;5054285;28;20044;-75
2021/07/08 03:16:00;;;;;;;20.98;9.60;;;;;;;;;;5054550;28;20037;-75
2021/07/08 03:19:04;;;;;;;22.15;9.70;;;;;;;;;;5054248;28;20037;-75
2021/07/08 03:22:08;;;;;;;15.98;7.60;;;;;;;;;;5054236;28;20033;-75
2021/07/08 03:25:14;;;;;;;18.45;7.30;;;;;;;;;;5054672;28;20048;-75
2021/07/08 03:28:19;;;;;;;17.17;7.43;;;;;;;;;;5054152;28;20040;-75
2021/07/08 03:31:23;;;;;;;23.83;7.57;;;;;;;;;;5054015;28;20048;-75
2021/07/08 03:34:27;;;;;;;27.65;8.80;;;;;;;;;;5054321;28;20044;-75
2021/07/08 03:37:32;;;;;;;14.82;6.95;;;;;;;;;;5053100;28;20041;-75
2021/07/08 03:40:39;;;;;;;20.98;9.32;;;;;;;;;;5053732;28;20037;-74
2021/07/08 03:43:43;;;;;;;19.23;11.10;;;;;;;;;;5053539;28;20148;-74
2021/07/08 03:46:48;;;;;;;24.90;10.18;;;;;;;;;;5053753;28;20044;-74
2021/07/08 03:49:52;;;;;;;21.25;9.45;;;;;;;;;;5053504;28;20048;-74
2021/07/08 03:52:58;;;;;;;21.83;8.93;;;;;;;;;;5053671;28;20038;-74
2021/07/08 03:56:03;;;;;;;26.40;9.52;;;;;;;;;;5053011;28;20521;-75
2021/07/08 03:59:07;;;;;;;22.65;12.30;;;;;;;;;;5053421;28;20045;-75
2021/07/08 04:02:11;;;;;;;32.05;12.32;;;;;;;;;;5053658;28;20059;-75
2021/07/08 04:05:16;;;;;;;23.00;13.77;;;;;;;;;;5053444;28;20535;-75
2021/07/08 04:08:20;;;;;;;21.35;10.40;;;;;;;;;;5052517;28;20139;-74
2021/07/08 04:11:24;;;;;;;19.38;9.18;;;;;;;;;;5053378;28;20055;-75
2021/07/08 04:14:28;;;;;;;23.02;8.80;;;;;;;;;;5053312;28;20095;-75
2021/07/08 04:17:33;;;;;;;13.60;8.27;;;;;;;;;;5052970;28;20047;-75
2021/07/08 04:20:37;;;;;;;21.50;9.15;;;;;;;;;;5052257;28;20397;-75
2021/07/08 04:23:42;;;;;;;19.63;7.95;;;;;;;;;;5053162;28;20501;-75
2021/07/08 04:26:46;;;;;;;25.38;8.60;;;;;;;;;;5053137;28;20037;-75
2021/07/08 04:29:50;;;;;;;18.77;7.78;;;;;;;;;;5052751;28;20041;-75
2021/07/08 04:32:55;;;;;;;26.75;8.55;;;;;;;;;;5052913;28;20033;-75
2021/07/08 04:36:00;;;;;;;14.20;7.65;;;;;;;;;;5053115;28;20040;-74
2021/07/08 04:39:04;;;;;;;18.75;8.52;;;;;;;;;;5052774;28;20420;-75
2021/07/08 04:42:10;;;;;;;15.57;7.15;;;;;;;;;;5052599;28;20037;-75
2021/07/08 04:45:15;;;;;;;16.00;7.75;;;;;;;;;;5052304;28;20048;-74
2021/07/08 04:48:19;;;;;;;25.42;8.10;;;;;;;;;;5051656;28;20037;-74
2021/07/08 04:51:23;;;;;;;20.80;8.07;;;;;;;;;;5052375;28;20059;-75
2021/07/08 04:54:28;;;;;;;18.33;8.13;;;;;;;;;;5052581;28;20029;-75
2021/07/08 04:57:32;;;;;;;18.17;10.43;;;;;;;;;;5052189;28;20048;-75
2021/07/08 05:00:37;;;;;;;30.92;8.75;;;;;;;;;;5052093;28;20048;-75
2021/07/08 05:03:41;;;;;;;29.95;7.80;;;;;;;;;;5052089;28;20041;-75
2021/07/08 05:06:45;;;;;;;43.35;16.40;;;;;;;;;;5051414;28;20029;-75
2021/07/08 05:09:50;;;;;;;51.22;22.77;;;;;;;;;;5052077;28;20047;-75
2021/07/08 05:12:54;;;;;;;36.70;14.98;;;;;;;;;;5052039;28;20527;-75
2021/07/08 05:15:58;;;;;;;51.30;16.67;;;;;;;;;;5051469;28;20567;-75
2021/07/08 05:19:03;;;;;;;34.63;14.88;;;;;;;;;;5050890;28;20063;-75
2021/07/08 05:22:07;;;;;;;33.08;15.75;;;;;;;;;;5051613;28;20040;-75
2021/07/08 05:25:14;;;;;;;47.78;15.23;;;;;;;;;;5051724;28;20324;-64
2021/07/08 05:28:18;;;;;;;48.83;14.13;;;;;;;;;;5050586;28;20036;-64
2021/07/08 05:31:22;;;;;;;55.50;18.40;;;;;;;;;;5051749;28;20060;-65
2021/07/08 05:34:27;;;;;;;42.72;17.52;;;;;;;;;;5051426;28;20665;-64
2021/07/08 05:37:31;;;;;;;46.22;17.48;;;;;;;;;;5051340;28;20044;-65
2021/07/08 05:40:36;;;;;;;40.92;12.90;;;;;;;;;;5051415;28;20523;-64
2021/07/08 05:43:41;;;;;;;39.83;10.68;;;;;;;;;;5051511;28;20056;-64
2021/07/08 05:46:45;;;;;;;40.38;10.77;;;;;;;;;;5051297;28;20052;-65
2021/07/08 05:49:49;;;;;;;38.50;12.75;;;;;;;;;;5051450;28;20044;-65
2021/07/08 05:52:54;;;;;;;47.60;11.88;;;;;;;;;;5051196;28;20040;-65
2021/07/08 05:55:58;;;;;;;39.92;13.88;;;;;;;;;;5051259;28;20047;-65
2021/07/08 05:59:03;;;;;;;48.15;13.73;;;;;;;;;;5050865;28;20044;-65
2021/07/08 06:02:07;;;;;;;55.08;14.38;;;;;;;;;;5050938;28;20044;-65
2021/07/08 06:05:12;;;;;;;35.17;13.00;;;;;;;;;;5050859;28;20051;-65
2021/07/08 06:08:16;;;;;;;37.92;13.20;;;;;;;;;;5050834;28;20064;-65
2021/07/08 06:11:20;;;;;;;25.08;9.73;;;;;;;;;;5050830;28;20040;-65
2021/07/08 06:14:25;;;;;;;25.67;9.15;;;;;;;;;;5050415;28;20043;-65
2021/07/08 06:17:30;;;;;;;28.08;8.27;;;;;;;;;;5050828;28;20477;-65
2021/07/08 06:20:34;;;;;;;29.63;8.90;;;;;;;;;;5051131;28;20041;-67
2021/07/08 06:23:38;;;;;;;35.33;10.32;;;;;;;;;;5050547;28;20045;-66
2021/07/08 06:26:43;;;;;;;30.05;9.25;;;;;;;;;;5050390;28;20040;-66
2021/07/08 06:29:48;;;;;;;31.67;8.48;;;;;;;;;;5050450;28;20037;-65
2021/07/08 06:32:52;;;;;;;21.60;8.40;;;;;;;;;;5050476;28;20060;-66
2021/07/08 06:35:56;;;;;;;19.45;7.93;;;;;;;;;;5050418;28;20037;-66
2021/07/08 06:39:01;;;;;;;26.00;8.85;;;;;;;;;;5050371;28;20041;-66
2021/07/08 06:42:05;;;;;;;35.83;8.70;;;;;;;;;;5049480;28;20036;-67
2021/07/08 06:45:15;;;;;;;23.70;8.68;;;;;;;;;;5050003;28;20119;-66
2021/07/08 06:48:19;;;;;;;22.67;7.55;;;;;;;;;;5050261;28;20392;-66
2021/07/08 06:51:24;;;;;;;34.30;10.48;;;;;;;;;;5050618;28;20052;-66
2021/07/08 06:54:29;;;;;;;24.92;8.80;;;;;;;;;;5050252;28;20550;-66
2021/07/08 06:57:33;;;;;;;28.33;8.65;;;;;;;;;;5049929;28;20507;-66
2021/07/08 07:00:38;;;;;;;27.30;10.13;;;;;;;;;;5049487;28;20040;-66
2021/07/08 07:03:42;;;;;;;36.63;11.02;;;;;;;;;;5050288;28;20511;-66
2021/07/08 07:06:47;;;;;;;90.82;16.13;;;;;;;;;;5050432;28;20048;-66
2021/07/08 07:09:51;;;;;;;152.18;19.73;;;;;;;;;;5050189;28;20039;-66
2021/07/08 07:12:57;;;;;;;26.83;8.25;;;;;;;;;;5050153;28;20044;-66
2021/07/08 07:16:01;;;;;;;19.40;7.10;;;;;;;;;;5050194;28;20037;-66
2021/07/08 07:19:05;;;;;;;101.90;13.65;;;;;;;;;;5049867;28;20033;-66
2021/07/08 07:22:10;;;;;;;44.95;9.57;;;;;;;;;;5050135;28;20048;-66
2021/07/08 07:25:15;;;;;;;25.80;7.40;;;;;;;;;;5049877;28;20068;-66
2021/07/08 07:28:19;;;;;;;24.15;7.15;;;;;;;;;;5049028;28;20037;-66
2021/07/08 07:31:24;;;;;;;22.02;6.90;;;;;;;;;;5049580;28;20401;-66
2021/07/08 07:34:28;;;;;;;19.00;6.45;;;;;;;;;;5049854;28;20037;-65
2021/07/08 07:37:33;;;;;;;15.20;6.85;;;;;;;;;;5049910;28;20045;-65
2021/07/08 07:40:38;;;;;;;23.90;6.75;;;;;;;;;;5049971;28;20032;-66
2021/07/08 07:43:42;;;;;;;17.27;6.53;;;;;;;;;;5052859;28;20451;-66
2021/07/08 07:46:46;;;;;;;11.02;5.15;;;;;;;;;;5033653;28;20052;-67
2021/07/08 07:49:52;;;;;;;19.38;5.90;;;;;;;;;;5033640;28;20045;-66
2021/07/08 07:52:56;;;;;;;18.00;5.75;;;;;;;;;;5033624;28;20327;-64
2021/07/08 07:56:01;;;;;;;25.83;6.05;;;;;;;;;;5033106;28;20048;-65
2021/07/08 07:59:05;;;;;;;85.63;9.27;;;;;;;;;;5033045;28;20045;-65
2021/07/08 08:02:13;;;;;;;32.97;6.05;;;;;;;;;;5033666;28;20477;-66
2021/07/08 08:08:30;;;;;;;25.92;5.45;;;;;;;;;;5033125;28;20037;-66
2021/07/08 08:11:34;;;;;;;21.73;6.43;;;;;;;;;;5020932;28;20604;-66
2021/07/08 08:14:38;;;;;;;19.27;6.45;;;;;;;;;;5032853;28;20070;-66
2021/07/08 08:17:42;;;;;;;49.92;7.65;;;;;;;;;;5032833;28;20102;-66
2021/07/08 08:20:47;;;;;;;19.50;5.00;;;;;;;;;;5032843;28;20034;-65
2021/07/08 08:23:51;;;;;;;74.90;10.60;;;;;;;;;;5032607;28;20056;-66
2021/07/08 08:26:55;;;;;;;15.50;5.30;;;;;;;;;;5032885;28;20104;-66
2021/07/08 08:29:59;;;;;;;14.32;5.15;;;;;;;;;;5032709;28;20041;-66
2021/07/08 08:33:04;;;;;;;14.23;5.18;;;;;;;;;;5032536;28;20366;-66
2021/07/08 08:36:08;;;;;;;17.52;5.85;;;;;;;;;;5031634;28;20518;-66
2021/07/08 08:39:13;;;;;;;11.65;5.60;;;;;;;;;;5032302;28;20052;-65
2021/07/08 08:42:17;;;;;;;19.70;5.63;;;;;;;;;;5032117;28;20039;-66
2021/07/08 08:45:21;;;;;;;19.88;5.90;;;;;;;;;;5045586;28;20157;-66
2021/07/08 08:48:26;;;;;;;14.30;5.82;;;;;;;;;;5052204;28;20402;-66
2021/07/08 08:51:30;;;;;;;14.15;5.38;;;;;;;;;;5052307;28;20033;-66
2021/07/08 08:54:35;;;;;;;20.38;5.88;;;;;;;;;;5052164;28;20032;-66
2021/07/08 08:57:40;;;;;;;10.65;5.40;;;;;;;;;;5052011;28;20037;-66
2021/07/08 09:00:54;;;;;;;21.08;5.50;;;;;;;;;;5051926;28;20050;-66
2021/07/08 09:03:59;;;;;;;12.48;5.35;;;;;;;;;;5052293;28;20051;-66
2021/07/08 09:07:22;;;;;;;13.82;4.78;;;;;;;;;;5051076;28;20037;-66
2021/07/08 09:10:26;;;;;;;9.38;5.00;;;;;;;;;;5052047;28;20051;-65
2021/07/08 09:13:45;;;;;;;10.10;4.57;;;;;;;;;;5051663;28;20037;-66
2021/07/08 09:16:48;;;;;;;11.80;4.07;;;;;;;;;;5051889;28;20048;-65
2021/07/08 09:20:07;;;;;;;11.07;5.00;;;;;;;;;;5051142;28;20037;-65
2021/07/08 09:23:17;;;;;;;12.60;4.80;;;;;;;;;;5051612;28;20053;-65
2021/07/08 09:26:21;;;;;;;15.15;4.68;;;;;;;;;;5051267;28;20033;-65
2021/07/08 09:29:30;;;;;;;10.50;4.13;;;;;;;;;;5051636;28;20123;-65
2021/07/08 09:32:35;;;;;;;10.20;3.80;;;;;;;;;;5051523;28;20040;-65
2021/07/08 09:35:41;;;;;;;11.70;4.38;;;;;;;;;;5051632;28;20033;-64
2021/07/08 09:38:46;;;;;;;7.70;4.30;;;;;;;;;;5051378;28;20041;-66
2021/07/08 09:41:52;;;;;;;17.17;4.57;;;;;;;;;;5050288;28;20040;-66
2021/07/08 09:45:07;;;;;;;15.02;5.47;;;;;;;;;;5051166;28;20041;-66
2021/07/08 09:48:18;;;;;;;12.07;4.15;;;;;;;;;;5051151;28;20060;-66
2021/07/08 09:51:30;;;;;;;8.07;4.22;;;;;;;;;;5051197;28;20037;-66
2021/07/08 09:58:05;;;;;;;5.82;3.65;;;;;;;;;;5051060;28;20045;-66
2021/07/08 10:01:12;;;;;;;7.38;4.40;;;;;;;;;;5051438;28;20041;-68
2021/07/08 10:04:16;;;;;;;10.77;3.88;;;;;;;;;;5050838;28;20048;-66
2021/07/08 10:07:21;;;;;;;12.68;4.63;;;;;;;;;;5050860;28;20037;-66
2021/07/08 10:10:25;;;;;;;5.72;3.70;;;;;;;;;;5050949;28;20552;-66
2021/07/08 10:13:31;;;;;;;13.57;4.78;;;;;;;;;;5050844;28;20033;-66
2021/07/08 10:16:36;;;;;;;9.23;4.63;;;;;;;;;;5050856;28;20040;-66
2021/07/08 10:19:43;;;;;;;7.43;4.35;;;;;;;;;;5051024;28;20429;-65
2021/07/08 10:22:48;;;;;;;12.20;4.95;;;;;;;;;;5050783;28;20033;-66
2021/07/08 10:25:52;;;;;;;14.85;4.80;;;;;;;;;;5050846;28;20528;-67
2021/07/08 10:28:57;;;;;;;9.60;4.38;;;;;;;;;;5050548;28;20033;-65
2021/07/08 10:32:01;;;;;;;12.82;4.30;;;;;;;;;;5050787;28;20029;-66
2021/07/08 10:35:06;;;;;;;8.63;4.13;;;;;;;;;;5050592;28;20040;-66
2021/07/08 10:38:30;;;;;;;11.15;4.70;;;;;;;;;;5050214;28;20414;-65
2021/07/08 10:41:34;;;;;;;12.35;4.38;;;;;;;;;;5050273;28;20045;-65
2021/07/08 10:44:40;;;;;;;10.30;4.53;;;;;;;;;;5049202;28;20053;-66
2021/07/08 10:47:44;;;;;;;10.52;4.40;;;;;;;;;;5050120;28;20150;-66
2021/07/08 10:50:49;;;;;;;8.35;4.13;;;;;;;;;;5049913;28;20041;-75
2021/07/08 10:53:53;;;;;;;12.60;4.10;;;;;;;;;;5050568;28;20041;-78
2021/07/08 10:56:58;;;;;;;8.63;3.97;;;;;;;;;;5050792;28;20041;-77
2021/07/08 11:00:05;;;;;;;6.63;3.65;;;;;;;;;;5050604;28;20037;-79
2021/07/08 11:03:29;;;;;;;13.60;4.18;;;;;;;;;;5050635;28;20037;-79
2021/07/08 11:06:35;;;;;;;7.90;3.88;;;;;;;;;;5049677;28;20508;-79
2021/07/08 11:09:53;;;;;;;10.10;3.80;;;;;;;;;;5051019;28;20370;-78
2021/07/08 11:13:18;;;;;;;13.68;4.85;;;;;;;;;;5050557;28;20041;-79
2021/07/08 11:16:44;;;;;;;8.48;4.15;;;;;;;;;;5050336;28;20033;-76
2021/07/08 11:19:49;;;;;;;13.35;4.25;;;;;;;;;;5054360;28;20060;-79
2021/07/08 11:22:53;;;;;;;13.45;4.20;;;;;;;;;;5054113;28;20032;-80
2021/07/08 11:25:57;;;;;;;13.27;3.90;;;;;;;;;;5052535;28;20048;-79
2021/07/08 11:29:02;;;;;;;8.30;4.30;;;;;;;;;;5052808;28;20041;-79
2021/07/08 11:32:18;;;;;;;8.35;3.58;;;;;;;;;;5054109;28;20037;-79
2021/07/08 11:35:40;;;;;;;12.80;4.53;;;;;;;;;;5053133;28;20037;-79
2021/07/08 11:38:45;;;;;;;11.82;4.82;;;;;;;;;;5054041;28;20037;-79
2021/07/08 11:41:50;;;;;;;11.32;4.20;;;;;;;;;;5053950;28;20052;-80
2021/07/08 11:45:04;;;;;;;11.52;4.43;;;;;;;;;;5053292;28;20062;-81
2021/07/08 11:48:09;;;;;;;12.93;4.78;;;;;;;;;;5052240;28;20037;-80
2021/07/08 11:51:19;;;;;;;12.88;4.97;;;;;;;;;;5053579;28;20041;-80
2021/07/08 11:54:24;;;;;;;9.23;4.57;;;;;;;;;;5053445;28;20033;-80
2021/07/08 11:57:48;;;;;;;12.00;4.30;;;;;;;;;;5053353;28;20394;-80
2021/07/08 12:00:56;;;;;;;8.60;4.20;;;;;;;;;;5053832;28;20037;-77
2021/07/08 12:04:00;;;;;;;12.38;3.50;;;;;;;;;;5053478;28;20052;-81
2021/07/08 12:07:05;;;;;;;9.18;4.03;;;;;;;;;;5053037;28;20389;-80
2021/07/08 12:10:11;;;;;;;9.70;3.95;;;;;;;;;;5052369;28;20033;-79
2021/07/08 12:13:17;;;;;;;5.95;3.60;;;;;;;;;;5052886;28;20481;-78
2021/07/08 12:16:28;;;;;;;15.43;4.18;;;;;;;;;;5053397;28;20378;-79
2021/07/08 12:19:32;;;;;;;7.23;3.60;;;;;;;;;;5053301;28;20040;-81
2021/07/08 12:22:56;;;;;;;10.27;4.68;;;;;;;;;;5052829;28;20477;-80
2021/07/08 12:26:00;;;;;;;6.65;3.72;;;;;;;;;;5052788;28;20045;-81
2021/07/08 12:29:10;;;;;;;10.75;4.07;;;;;;;;;;5052074;28;20037;-80
2021/07/08 12:32:20;;;;;;;6.15;3.90;;;;;;;;;;5052491;28;20044;-80
2021/07/08 12:35:24;;;;;;;10.40;4.53;;;;;;;;;;5052829;28;20041;-80
2021/07/08 12:38:29;;;;;;;10.88;4.60;;;;;;;;;;5052400;28;20052;-80
2021/07/08 12:41:35;;;;;;;12.90;4.97;;;;;;;;;;5052852;28;20033;-80
2021/07/08 12:44:40;;;;;;;11.00;5.38;;;;;;;;;;5052315;28;20511;-79
2021/07/08 12:47:47;;;;;;;6.35;4.28;;;;;;;;;;5052473;28;20036;-80
2021/07/08 12:50:51;;;;;;;12.02;4.63;;;;;;;;;;5052467;28;20040;-79
2021/07/08 12:53:56;;;;;;;14.75;5.60;;;;;;;;;;5052546;28;20033;-80
2021/07/08 12:57:03;;;;;;;10.32;5.32;;;;;;;;;;5051897;28;20052;-80
2021/07/08 13:00:11;;;;;;;9.70;4.85;;;;;;;;;;5052340;28;20035;-80
2021/07/08 13:03:24;;;;;;;12.85;5.00;;;;;;;;;;5051765;28;20049;-80
2021/07/08 13:06:30;;;;;;;17.80;5.50;;;;;;;;;;5052520;28;20041;-80
2021/07/08 13:09:36;;;;;;;9.95;5.35;;;;;;;;;;5052356;28;20033;-80
2021/07/08 13:12:40;;;;;;;13.82;5.57;;;;;;;;;;5052670;28;20045;-80
2021/07/08 13:15:45;;;;;;;10.98;5.97;;;;;;;;;;5052345;28;20044;-81
2021/07/08 13:18:50;;;;;;;20.77;6.00;;;;;;;;;;5052171;28;20041;-81
2021/07/08 13:21:54;;;;;;;15.52;6.00;;;;;;;;;;5051778;28;20054;-81
2021/07/08 13:25:12;;;;;;;10.73;5.63;;;;;;;;;;5050251;28;20048;-80
2021/07/08 13:28:22;;;;;;;11.23;5.53;;;;;;;;;;5050865;28;20108;-80
2021/07/08 13:31:26;;;;;;;;;;;;;;;;;;5052619;28;20036;-80
2021/07/08 13:34:31;;;;;;;10.05;4.50;;;;;;;;;;5051961;28;19916;-81
2021/07/08 13:37:40;;;;;;;11.68;4.57;;;;;;;;;;5051598;28;20408;-80
2021/07/08 13:41:03;;;;;;;9.32;3.00;;;;;;;;;;5050918;28;20032;-81
2021/07/08 13:44:15;;;;;;;18.77;3.92;;;;;;;;;;5050595;28;20061;-80
2021/07/08 13:47:23;;;;;;;10.57;3.40;;;;;;;;;;5050925;28;20032;-80
2021/07/08 13:50:29;;;;;;;15.20;4.00;;;;;;;;;;5051406;28;20041;-78
2021/07/08 13:53:34;;;;;;;18.23;5.05;;;;;;;;;;5051301;28;20072;-82
2021/07/08 13:56:38;;;;;;;17.30;4.50;;;;;;;;;;5051123;28;20036;-80
2021/07/08 13:59:43;;;;;;;18.42;4.35;;;;;;;;;;5051662;28;20047;-80
2021/07/08 14:02:47;;;;;;;14.90;4.18;;;;;;;;;;5051227;28;20104;-80
2021/07/08 14:05:51;;;;;;;25.25;3.88;;;;;;;;;;5051169;28;20041;-81
2021/07/08 14:08:56;;;;;;;16.98;4.60;;;;;;;;;;5051393;28;20064;-80
2021/07/08 14:12:00;;;;;;;10.93;4.00;;;;;;;;;;5051186;28;20036;-80
2021/07/08 14:15:05;;;;;;;12.88;3.80;;;;;;;;;;5051437;28;20044;-80
2021/07/08 14:18:09;;;;;;;12.02;4.15;;;;;;;;;;5050720;28;20044;-81
2021/07/08 14:21:13;;;;;;;11.30;3.70;;;;;;;;;;5050842;28;20040;-81
2021/07/08 14:24:18;;;;;;;7.72;3.40;;;;;;;;;;5051211;28;20041;-81
2021/07/08 14:27:22;;;;;;;9.27;3.38;;;;;;;;;;5050140;28;20041;-81
2021/07/08 14:30:28;;;;;;;6.30;3.38;;;;;;;;;;5050830;28;20029;-81
2021/07/08 14:33:33;;;;;;;10.32;3.47;;;;;;;;;;5050897;28;20033;-80
2021/07/08 14:36:37;;;;;;;14.57;4.13;;;;;;;;;;5050266;28;20044;-80
2021/07/08 14:39:41;;;;;;;14.07;4.35;;;;;;;;;;5050698;28;20048;-81
2021/07/08 14:42:51;;;;;;;12.52;4.05;;;;;;;;;;5049598;28;20515;-81
2021/07/08 14:45:55;;;;;;;13.60;4.05;;;;;;;;;;5050229;28;20049;-80
2021/07/08 14:49:00;;;;;;;14.35;3.97;;;;;;;;;;5050549;28;20048;-80
2021/07/08 14:52:05;;;;;;;11.43;3.53;;;;;;;;;;5054161;28;20033;-81
2021/07/08 14:55:10;;;;;;;17.33;4.78;;;;;;;;;;5056219;28;20037;-81
2021/07/08 14:58:15;;;;;;;9.20;3.47;;;;;;;;;;5057166;28;20038;-81
2021/07/08 15:01:19;;;;;;;7.70;3.50;;;;;;;;;;5057096;28;20040;-81
2021/07/08 15:04:23;;;;;;;17.40;4.07;;;;;;;;;;5056933;28;20048;-80
2021/07/08 15:07:28;;;;;;;19.33;3.92;;;;;;;;;;5056513;28;20392;-80
2021/07/08 15:10:32;;;;;;;13.70;3.60;;;;;;;;;;5056106;28;20041;-80
2021/07/08 15:13:36;;;;;;;9.75;3.45;;;;;;;;;;5057221;28;20050;-80
2021/07/08 15:16:40;;;;;;;47.60;24.00;;;;;;;;;;5056059;28;20045;-80
2021/07/08 15:19:45;;;;;;;13.80;4.20;;;;;;;;;;5056681;28;20035;-80
2021/07/08 15:22:50;;;;;;;12.85;3.35;;;;;;;;;;5057313;28;20052;-80
2021/07/08 15:25:54;;;;;;;8.40;4.13;;;;;;;;;;5055865;28;20044;-81
2021/07/08 15:28:58;;;;;;;19.05;3.63;;;;;;;;;;5055874;28;20037;-81
2021/07/08 15:32:04;;;;;;;16.80;3.92;;;;;;;;;;5056623;28;20048;-80
2021/07/08 15:35:10;;;;;;;18.05;3.35;;;;;;;;;;5056777;28;20041;-81
2021/07/08 15:38:14;;;;;;;28.40;4.38;;;;;;;;;;5055346;28;20066;-81
2021/07/08 15:41:19;;;;;;;24.10;4.55;;;;;;;;;;5056777;28;20139;-80
2021/07/08 15:44:23;;;;;;;12.90;3.17;;;;;;;;;;5056291;28;20060;-80
2021/07/08 15:47:28;;;;;;;12.02;3.20;;;;;;;;;;5056549;28;20424;-80
2021/07/08 15:50:32;;;;;;;10.77;3.17;;;;;;;;;;5056303;28;20474;-80
2021/07/08 15:53:37;;;;;;;7.30;2.80;;;;;;;;;;5056481;28;20044;-80
2021/07/08 15:56:41;;;;;;;11.57;3.20;;;;;;;;;;5055614;28;20465;-80
2021/07/08 15:59:46;;;;;;;8.30;3.33;;;;;;;;;;5056146;28;20060;-80
2021/07/08 16:02:50;;;;;;;16.80;3.30;;;;;;;;;;5056042;28;20029;-81
2021/07/08 16:05:54;;;;;;;10.48;3.22;;;;;;;;;;5040893;28;20041;-79
2021/07/08 16:09:00;;;;;;;11.88;3.92;;;;;;;;;;5053528;28;20025;-80
2021/07/08 16:12:05;;;;;;;12.02;3.38;;;;;;;;;;5053013;28;20441;-76
2021/07/08 16:15:09;;;;;;;9.35;3.30;;;;;;;;;;5052880;28;20056;-80
2021/07/08 16:18:14;;;;;;;13.00;3.58;;;;;;;;;;5052955;28;20045;-80
2021/07/08 16:21:18;;;;;;;19.60;3.78;;;;;;;;;;5052983;28;20054;-80
2021/07/08 16:24:23;;;;;;;10.93;3.30;;;;;;;;;;5052853;28;20052;-80
2021/07/08 16:27:29;;;;;;;15.68;3.10;;;;;;;;;;5053231;28;20408;-81
2021/07/08 16:30:34;;;;;;;14.82;3.20;;;;;;;;;;5053015;28;20444;-81
2021/07/08 16:33:38;;;;;;;17.90;2.90;;;;;;;;;;5052612;28;20040;-80
2021/07/08 16:36:43;;;;;;;18.38;3.63;;;;;;;;;;5052639;28;20112;-82
2021/07/08 16:39:47;;;;;;;10.95;3.47;;;;;;;;;;5052904;28;20408;-81
2021/07/08 16:42:53;;;;;;;10.95;2.75;;;;;;;;;;5052905;28;20033;-79
2021/07/08 16:45:58;;;;;;;13.45;2.58;;;;;;;;;;5051616;28;20053;-79
2021/07/08 16:49:03;;;;;;;9.38;2.60;;;;;;;;;;5052288;28;20071;-81
2021/07/08 16:52:08;;;;;;;10.98;2.72;;;;;;;;;;5052579;28;20149;-78
2021/07/08 16:55:13;;;;;;;15.75;2.25;;;;;;;;;;5040704;28;20040;-79
2021/07/08 16:58:17;;;;;;;14.90;2.33;;;;;;;;;;5052601;28;20053;-81
2021/07/08 17:01:22;;;;;;;10.45;2.17;;;;;;;;;;5052180;28;20412;-78
2021/07/08 17:04:26;;;;;;;8.85;2.00;;;;;;;;;;5051609;28;20041;-78
2021/07/08 17:07:31;;;;;;;6.07;2.47;;;;;;;;;;5051906;28;20033;-79
2021/07/08 17:10:37;;;;;;;6.60;1.65;;;;;;;;;;5051930;28;20033;-79
2021/07/08 17:13:42;;;;;;;10.73;2.13;;;;;;;;;;5052108;28;20370;-79
2021/07/08 17:16:46;;;;;;;11.65;2.15;;;;;;;;;;5049825;28;20049;-77
2021/07/08 17:19:50;;;;;;;10.60;2.40;;;;;;;;;;5049642;28;20516;-79
2021/07/08 17:22:55;;;;;;;10.85;2.63;;;;;;;;;;5051559;28;20049;-77
2021/07/08 17:26:00;;;;;;;12.88;2.60;;;;;;;;;;5051534;28;20045;-77
2021/07/08 17:29:04;;;;;;;15.73;2.70;;;;;;;;;;5051694;28;20025;-77
2021/07/08 17:32:08;;;;;;;10.00;2.67;;;;;;;;;;5051213;28;20074;-77
2021/07/08 17:35:12;;;;;;;9.80;2.65;;;;;;;;;;5051804;28;20036;-77
2021/07/08 17:38:17;;;;;;;11.05;2.50;;;;;;;;;;5051041;28;20354;-77
2021/07/08 17:41:21;;;;;;;9.52;2.50;;;;;;;;;;5051036;28;20029;-77
2021/07/08 17:44:25;;;;;;;6.18;2.65;;;;;;;;;;5051108;28;20044;-78
2021/07/08 17:47:31;;;;;;;10.98;2.58;;;;;;;;;;5050940;28;20033;-79
2021/07/08 17:50:36;;;;;;;17.00;2.70;;;;;;;;;;5051193;28;20037;-77
2021/07/08 17:53:41;;;;;;;16.17;3.15;;;;;;;;;;5051011;28;20032;-79
2021/07/08 17:56:45;;;;;;;11.70;3.00;;;;;;;;;;5051366;28;20284;-78
2021/07/08 17:59:50;;;;;;;12.38;3.13;;;;;;;;;;5050321;28;20056;-78
2021/07/08 18:02:54;;;;;;;13.35;3.33;;;;;;;;;;5050989;28;20377;-78
2021/07/08 18:05:59;;;;;;;18.38;3.33;;;;;;;;;;5050718;28;20048;-77
2021/07/08 18:09:04;;;;;;;15.10;3.20;;;;;;;;;;5050839;28;20059;-77
2021/07/08 18:12:09;;;;;;;11.82;2.83;;;;;;;;;;5050442;28;20056;-77
2021/07/08 18:15:15;;;;;;;8.88;2.40;;;;;;;;;;5050365;28;20188;-78
2021/07/08 18:18:19;;;;;;;9.95;2.60;;;;;;;;;;5050362;28;20037;-77
2021/07/08 18:21:24;;;;;;;8.73;2.60;;;;;;;;;;5051166;28;20041;-78
2021/07/08 18:24:29;;;;;;;8.13;2.58;;;;;;;;;;5050276;28;20044;-77